Flight Track Log - Related Links

Times and Time Zones

All times are in EST time to prevent confusion due to time zone crossing. See the N502QS flight status page for this flight to view local times or setup timezone preferences in your user account.

Time Position Orientation Groundspeed Altitude Reporting Facility
EST Latitude Longitude Course Direction KTS MPH feet Rate Location/Type
Sun 01:41:05 PM 47.5197 -122.2933 146° Southeast 160 184 1,600  Level Seattle Center
Sun 01:41:24 PM 47.5067 -122.2803 146° Southeast 174 200 2,100 2,886 Climbing Seattle Center
Sun 01:42:24 PM 47.4633 -122.2294 142° Southeast 194 223 5,400 3,223 Climbing Seattle Center
Sun 01:43:25 PM 47.4014 -122.1883 156° South 251 289 8,600 3,246 Climbing Seattle Center
Sun 01:44:26 PM 47.3297 -122.1625 166° South 265 305 12,000 2,754 Climbing Seattle Center
Sun 01:45:27 PM 47.2317 -122.1258 166° South 342 394 14,200 2,361 Climbing Seattle Center
Sun 01:46:28 PM 47.1308 -122.0897 166° South 377 434 16,800 2,311 Climbing Seattle Center
Sun 01:47:29 PM 47.0294 -122.0525 166° South 405 466 18,900 2,557 Climbing Seattle Center
Sun 01:48:30 PM 46.9094 -122.0106 167° South 437 503 22,000 3,000 Climbing Seattle Center
Sun 01:49:31 PM 46.7875 -121.9658 166° South 450 518 25,000 2,727 Climbing Seattle Center
Sun 01:50:31 PM 46.6606 -121.9200 166° South 467 537 27,500 2,579 Climbing Seattle Center
Sun 01:51:32 PM 46.5281 -121.8711 166° South 487 560 30,200 2,803 Climbing Seattle Center
Sun 01:52:33 PM 46.3956 -121.8233 166° South 491 565 33,200 3,393 Climbing Seattle Center
Sun 01:53:34 PM 46.2397 -121.7681 166° South 480 552 37,100 2,951 Climbing Seattle Center
Sun 01:54:35 PM 46.1289 -121.7289 166° South 469 540 39,200 1,820 Climbing Seattle Center
Sun 01:55:36 PM 46.0047 -121.6864 167° South 461 531 40,800 885 Climbing Seattle Center
Sun 01:56:37 PM 45.8750 -121.6397 166° South 482 555 41,000 98 Climbing Seattle Center
Sun 01:57:38 PM 45.7403 -121.5931 166° South 498 573 41,000  Level Seattle Center
Sun 01:58:38 PM 45.6058 -121.5447 166° South 500 575 41,000  Level Seattle Center
Sun 01:59:39 PM 45.4433 -121.4906 167° South 501 577 41,000  Level Seattle Center
Sun 02:00:40 PM 45.3114 -121.4444 166° South 494 568 41,000  Level Seattle Center
Sun 02:01:41 PM 45.1789 -121.4008 167° South 492 566 41,000  Level Seattle Center
Sun 02:02:42 PM 45.0444 -121.3553 167° South 494 568 41,000  Level Seattle Center
Sun 02:03:43 PM 44.9106 -121.3092 166° South 498 573 41,000  Level Seattle Center
Sun 02:04:44 PM 44.7775 -121.2653 167° South 496 571 41,000  Level Seattle Center
Sun 02:05:45 PM 44.6447 -121.2203 166° South 495 570 41,000  Level Seattle Center
Sun 02:06:46 PM 44.5083 -121.1756 167° South 495 570 41,000  Level Seattle Center
Sun 02:07:46 PM 44.3733 -121.1311 167° South 495 570 41,000  Level Seattle Center
Sun 02:08:47 PM 44.2447 -121.0878 166° South 496 571 41,000  Level Seattle Center
Sun 02:09:48 PM 44.1117 -121.0453 167° South 495 570 41,000  Level Seattle Center
Sun 02:10:49 PM 43.9511 -120.9919 167° South 496 571 41,000  Level Seattle Center
Sun 02:11:50 PM 43.8189 -120.9481 167° South 493 567 41,000  Level Seattle Center
Sun 02:12:51 PM 43.6861 -120.9069 167° South 491 565 41,000  Level Seattle Center
Sun 02:13:52 PM 43.5633 -120.8683 167° South 503 579 41,000  Level Seattle Center
Sun 02:14:53 PM 43.4294 -120.8239 166° South 498 573 41,000  Level Seattle Center
Sun 02:15:54 PM 43.2967 -120.7839 168° South 491 565 41,000  Level Seattle Center
Sun 02:16:55 PM 43.1350 -120.7308 167° South 494 568 41,000  Level Seattle Center
Sun 02:17:55 PM 43.0033 -120.6908 167° South 486 559 41,000  Level Seattle Center
Sun 02:18:56 PM 42.8719 -120.6489 167° South 485 558 41,000  Level Seattle Center
Sun 02:19:57 PM 42.7408 -120.6094 168° South 485 558 41,000  Level Seattle Center
Sun 02:20:58 PM 42.6083 -120.5686 167° South 485 558 41,000  Level Seattle Center
Sun 02:21:59 PM 42.4747 -120.5272 167° South 490 564 41,000  Level Seattle Center
Sun 02:23:00 PM 42.3411 -120.4853 167° South 492 566 41,000  Level Seattle Center
Sun 02:24:01 PM 42.2092 -120.4447 167° South 487 560 41,000  Level Seattle Center
Sun 02:25:02 PM 42.0767 -120.4050 167° South 487 560 41,000  Level Seattle Center
Sun 02:26:03 PM 41.9450 -120.3631 167° South 486 559 41,000  Level Seattle Center
Sun 02:27:04 PM 41.8139 -120.3233 167° South 483 556 41,000  Level Seattle Center
Sun 02:28:05 PM 41.6803 -120.2844 168° South 488 562 41,000  Level Seattle Center
Sun 02:29:06 PM 41.5472 -120.2447 167° South 490 564 41,000  Level Seattle Center
Sun 02:30:07 PM 41.4156 -120.2056 167° South 486 559 41,000  Level Seattle Center
Sun 02:31:08 PM 41.2856 -120.1664 167° South 479 551 41,000 -541 Level Seattle Center
Sun 02:32:09 PM 41.1553 -120.1267 167° South 479 551 39,900 -2,115 Descending Seattle Center
Sun 02:33:10 PM 40.9956 -120.0800 168° South 488 562 36,700 -3,197 Descending Seattle Center
Sun 02:34:11 PM 40.8586 -120.0394 167° South 500 575 33,400 -3,278 Descending Seattle Center
Sun 02:34:58 PM 40.7483 -120.0056 167° South 515 593 30,800 -1,872 Descending Oakland Center
Sun 02:36:00 PM 40.6042 -119.9633 167° South 527 606 30,000 -390 Descending Oakland Center
Sun 02:37:01 PM 40.4633 -119.9231 168° South 526 605 30,000 -634 Level Oakland Center
Sun 02:38:03 PM 40.3208 -119.8831 168° South 524 603 28,700 -2,049 Descending Oakland Center
Sun 02:39:04 PM 40.1847 -119.8414 167° South 507 583 25,800 -2,976 Descending Oakland Center
Sun 02:40:06 PM 40.0531 -119.8050 168° South 489 563 22,600 -3,463 Descending Oakland Center
Sun 02:41:07 PM 39.9067 -119.7631 168° South 452 520 18,700 -3,220 Descending Oakland Center
Sun 02:42:09 PM 39.7919 -119.7581 178° South 426 490 16,000 -1,317 Descending Oakland Center
Sun 02:43:10 PM 39.7133 -119.8458 221° Southwest 388 447 16,000  Level Oakland Center
Sun 02:44:11 PM 39.6561 -119.9478 234° Southwest 355 409 16,000  Level Oakland Center
Sun 02:45:13 PM 39.6075 -120.0344 234° Southwest 307 353 16,000  Level Oakland Center
Sun 02:46:14 PM 39.5642 -120.1117 234° Southwest 272 313 16,000  Level Oakland Center
Sun 02:47:15 PM 39.5233 -120.1806 232° Southwest 254 292 16,000 -829 Level Oakland Center
Sun 02:48:17 PM 39.4811 -120.2411 228° Southwest 238 274 14,300 -1,610 Descending Oakland Center
Sun 02:49:18 PM 39.4522 -120.3161 244° Southwest 236 272 12,700 -1,721 Descending Oakland Center
Sun 02:50:19 PM 39.3908 -120.2944 165° South 216 249 10,800 -1,610 Descending Oakland Center
Sun 02:51:21 PM 39.3731 -120.2625 126° Southeast 171 197 9,400 -1,355 Descending Oakland Center

Login

Don't have an account? Register now (free) for customized features, flight alerts, and more!